Time;durP1;ratioP1;P1;durP2;ratioP2;P2;SDS_P1;SDS_P2;PMS_P1;PMS_P2;Temp;Humidity;BMP_temperature;BMP_pressure;BME280_temperature;BME280_humidity;BME280_pressure;Samples;Min_cycle;Max_cycle;Signal;HPM_P1;HPM_P2
2023/09/09 00:01:35;;;;;;;10.38;5.78;;;14.30;99.90;;;;;;5093722;28;20024;-61
2023/09/09 00:04:03;;;;;;;8.93;6.07;;;14.30;99.90;;;;;;5093410;28;20024;-61
2023/09/09 00:06:28;;;;;;;9.73;6.70;;;14.30;99.90;;;;;;5075718;28;20462;-61
2023/09/09 00:08:54;;;;;;;12.90;5.80;;;14.20;99.90;;;;;;5093778;28;20031;-61
2023/09/09 00:11:20;;;;;;;11.18;6.68;;;14.20;99.90;;;;;;5075544;28;20032;-61
2023/09/09 00:13:45;;;;;;;9.73;6.68;;;14.20;99.90;;;;;;5093786;28;20089;-61
2023/09/09 00:16:11;;;;;;;10.75;6.35;;;14.10;99.90;;;;;;5075926;28;20097;-61
2023/09/09 00:18:37;;;;;;;9.93;6.18;;;14.10;99.90;;;;;;5093730;28;20066;-61
2023/09/09 00:21:04;;;;;;;9.50;6.65;;;14.10;99.90;;;;;;5093814;28;20096;-61
2023/09/09 00:23:30;;;;;;;7.68;5.93;;;14.10;99.90;;;;;;5094544;28;20028;-61
2023/09/09 00:25:56;;;;;;;8.13;6.20;;;14.10;99.90;;;;;;5098476;28;20048;-61
2023/09/09 00:28:23;;;;;;;9.80;6.68;;;14.10;99.90;;;;;;5097288;28;20085;-61
2023/09/09 00:30:49;;;;;;;9.95;6.53;;;14.00;99.90;;;;;;5094760;28;20089;-61
2023/09/09 00:33:14;;;;;;;7.97;6.03;;;14.00;99.90;;;;;;5094310;28;20039;-61
2023/09/09 00:35:40;;;;;;;8.82;6.43;;;14.00;99.90;;;;;;5093782;28;20042;-61
2023/09/09 00:38:12;;;;;;;12.93;6.55;;;14.00;99.90;;;;;;5097119;28;20031;-61
2023/09/09 00:40:37;;;;;;;12.80;6.45;;;14.00;99.90;;;;;;5079381;28;20058;-61
2023/09/09 00:43:03;;;;;;;9.52;6.00;;;14.00;99.90;;;;;;5098212;28;20024;-61
2023/09/09 00:45:29;;;;;;;11.23;7.13;;;13.90;99.90;;;;;;5097628;28;20032;-61
2023/09/09 00:47:56;;;;;;;8.40;6.97;;;13.90;99.90;;;;;;5097449;28;20058;-61
2023/09/09 00:50:25;;;;;;;10.23;6.32;;;13.90;99.90;;;;;;5079436;28;20031;-61
2023/09/09 00:52:51;;;;;;;8.43;6.35;;;13.80;99.90;;;;;;5078850;28;20048;-61
2023/09/09 00:55:17;;;;;;;11.38;7.30;;;13.80;99.90;;;;;;5097255;28;20020;-61
2023/09/09 00:57:43;;;;;;;7.07;6.00;;;13.80;99.90;;;;;;5097373;28;20081;-61
2023/09/09 01:00:09;;;;;;;8.40;6.72;;;13.70;99.90;;;;;;5097250;28;20112;-61
2023/09/09 01:02:39;;;;;;;10.73;6.97;;;13.70;99.90;;;;;;5096812;28;20020;-61
2023/09/09 01:05:10;;;;;;;10.68;6.43;;;13.70;99.90;;;;;;5079404;28;20532;-61
2023/09/09 01:07:46;;;;;;;7.47;6.32;;;13.70;99.90;;;;;;5079373;28;20043;-61
2023/09/09 01:10:13;;;;;;;10.07;6.65;;;13.70;99.90;;;;;;5097331;28;20049;-61
2023/09/09 01:12:41;;;;;;;8.57;6.47;;;13.70;99.90;;;;;;5096953;28;20024;-61
2023/09/09 01:15:07;;;;;;;9.80;6.97;;;13.60;99.90;;;;;;5096973;28;20029;-61
2023/09/09 01:17:35;;;;;;;9.95;6.65;;;13.60;99.90;;;;;;5097325;28;20031;-61
2023/09/09 01:20:07;;;;;;;7.88;6.50;;;13.60;99.90;;;;;;5096604;28;20034;-61
2023/09/09 01:22:35;;;;;;;12.57;7.32;;;13.60;99.90;;;;;;5078676;28;20028;-61
2023/09/09 01:25:04;;;;;;;13.00;6.65;;;13.50;99.90;;;;;;5097352;28;20489;-61
2023/09/09 01:27:29;;;;;;;11.93;7.53;;;13.50;99.90;;;;;;5097389;28;20089;-61
2023/09/09 01:29:55;;;;;;;9.93;6.22;;;13.50;99.90;;;;;;5097720;28;20028;-61
2023/09/09 01:32:21;;;;;;;9.13;6.65;;;13.50;99.90;;;;;;5097774;28;20033;-61
2023/09/09 01:34:46;;;;;;;10.43;7.10;;;13.50;99.90;;;;;;5079901;28;20085;-61
2023/09/09 01:37:12;;;;;;;9.77;7.30;;;13.50;99.90;;;;;;5098445;28;20036;-61
2023/09/09 01:39:38;;;;;;;10.95;7.13;;;13.50;99.90;;;;;;5096666;28;20032;-61
2023/09/09 01:42:03;;;;;;;9.40;6.63;;;13.50;99.90;;;;;;5096639;28;20051;-61
2023/09/09 01:44:29;;;;;;;10.93;6.97;;;13.40;99.90;;;;;;5096128;28;20101;-61
2023/09/09 01:46:55;;;;;;;9.57;6.70;;;13.40;99.90;;;;;;5096139;28;20024;-61
2023/09/09 01:49:20;;;;;;;10.82;7.50;;;13.40;99.90;;;;;;5078160;28;20144;-61
2023/09/09 01:51:46;;;;;;;12.60;7.40;;;13.40;99.90;;;;;;5094268;28;20052;-61
2023/09/09 01:54:11;;;;;;;9.88;7.70;;;13.40;99.90;;;;;;5077048;28;20024;-61
2023/09/09 01:56:37;;;;;;;9.88;7.00;;;13.40;99.90;;;;;;5095075;28;20420;-61
2023/09/09 01:59:03;;;;;;;10.80;7.03;;;13.40;99.90;;;;;;5095205;28;20419;-61
2023/09/09 02:01:28;;;;;;;10.20;7.75;;;13.40;99.90;;;;;;5094818;28;20028;-61
2023/09/09 02:03:54;;;;;;;18.40;7.20;;;13.40;99.90;;;;;;5076818;28;20024;-61
2023/09/09 02:06:19;;;;;;;7.57;6.68;;;13.40;99.90;;;;;;5076779;28;20028;-61
2023/09/09 02:08:45;;;;;;;8.68;6.82;;;13.30;99.90;;;;;;5095587;28;20462;-61
2023/09/09 02:11:11;;;;;;;12.65;7.40;;;13.30;99.90;;;;;;5076861;28;20028;-61
2023/09/09 02:13:36;;;;;;;11.23;7.63;;;13.30;99.90;;;;;;5094845;28;20463;-61
2023/09/09 02:16:06;;;;;;;12.88;7.82;;;13.30;99.90;;;;;;5095004;28;20032;-61
2023/09/09 02:18:31;;;;;;;14.77;7.70;;;13.30;99.90;;;;;;5094678;28;20020;-61
2023/09/09 02:20:58;;;;;;;15.23;7.70;;;13.30;99.90;;;;;;5094610;28;20106;-61
2023/09/09 02:23:24;;;;;;;16.25;6.85;;;13.20;99.90;;;;;;5094691;28;20473;-61
2023/09/09 02:25:49;;;;;;;12.75;7.80;;;13.20;99.90;;;;;;5094538;28;20028;-61
2023/09/09 02:28:15;;;;;;;11.07;7.50;;;13.20;99.90;;;;;;5094586;28;20027;-61
2023/09/09 02:30:44;;;;;;;13.73;7.38;;;13.20;99.90;;;;;;5094768;28;20032;-61
2023/09/09 02:33:10;;;;;;;;;;;13.20;99.90;;;;;;5076740;28;20548;-61
2023/09/09 02:35:40;;;;;;;11.68;8.07;;;13.10;99.90;;;;;;5094399;28;19939;-61
2023/09/09 02:38:06;;;;;;;11.63;7.38;;;13.10;99.90;;;;;;5094404;28;20024;-61
2023/09/09 02:40:31;;;;;;;10.32;7.95;;;13.10;99.90;;;;;;5094380;28;20020;-61
2023/09/09 02:42:57;;;;;;;13.65;8.25;;;13.10;99.90;;;;;;5076138;28;20028;-61
2023/09/09 02:45:23;;;;;;;12.30;8.02;;;13.10;99.90;;;;;;5076522;28;20097;-61
2023/09/09 02:47:48;;;;;;;10.65;7.50;;;13.10;99.90;;;;;;5076493;28;20465;-61
2023/09/09 02:50:14;;;;;;;11.48;7.40;;;13.10;99.90;;;;;;5094114;28;20492;-61
2023/09/09 02:52:39;;;;;;;11.10;7.55;;;13.00;99.90;;;;;;5054397;28;1143801;-61
2023/09/09 02:55:06;;;;;;;13.18;7.40;;;13.00;99.90;;;;;;5094630;28;20465;-61
2023/09/09 02:57:31;;;;;;;10.85;7.25;;;13.00;99.90;;;;;;5095081;28;20046;-61
2023/09/09 02:59:57;;;;;;;14.05;8.02;;;13.00;99.90;;;;;;5094270;28;20409;-61
2023/09/09 03:02:23;;;;;;;11.70;8.13;;;13.10;99.90;;;;;;5094804;28;20039;-61
2023/09/09 03:04:48;;;;;;;13.98;8.57;;;13.10;99.90;;;;;;5095191;28;20043;-61
2023/09/09 03:07:14;;;;;;;18.83;8.02;;;13.10;99.90;;;;;;5076921;28;20024;-61
2023/09/09 03:09:40;;;;;;;25.52;9.63;;;13.10;99.90;;;;;;5094710;28;20138;-61
2023/09/09 03:12:06;;;;;;;11.65;8.20;;;13.10;99.90;;;;;;5076804;28;20031;-61
2023/09/09 03:14:32;;;;;;;12.10;7.93;;;13.10;99.90;;;;;;5094793;28;20052;-61
2023/09/09 03:17:01;;;;;;;11.88;7.35;;;13.10;99.90;;;;;;5094398;28;20054;-61
2023/09/09 03:19:27;;;;;;;17.55;7.82;;;13.00;99.90;;;;;;5076516;28;20024;-61
2023/09/09 03:21:52;;;;;;;12.32;7.70;;;13.00;99.90;;;;;;5094558;28;20035;-68
2023/09/09 03:24:18;;;;;;;15.27;7.68;;;13.00;99.90;;;;;;5076597;28;20392;-61
2023/09/09 03:26:43;;;;;;;10.25;8.20;;;13.00;99.90;;;;;;5094161;28;20020;-61
2023/09/09 03:29:09;;;;;;;13.45;8.50;;;13.00;99.90;;;;;;5094260;28;20016;-61
2023/09/09 03:31:35;;;;;;;11.88;8.27;;;13.00;99.90;;;;;;5094296;28;20035;-61
2023/09/09 03:34:00;;;;;;;11.65;8.93;;;12.90;99.90;;;;;;5094320;28;20039;-61
2023/09/09 03:36:26;;;;;;;10.57;8.18;;;12.90;99.90;;;;;;5094201;28;20017;-61
2023/09/09 03:38:51;;;;;;;11.77;8.48;;;12.90;99.90;;;;;;5094054;28;20436;-61
2023/09/09 03:41:17;;;;;;;14.23;9.57;;;12.90;99.90;;;;;;5075951;28;20119;-61
2023/09/09 03:43:43;;;;;;;13.15;8.82;;;12.90;99.90;;;;;;5094126;28;20028;-61
2023/09/09 03:46:08;;;;;;;11.20;8.48;;;12.80;99.90;;;;;;5094380;28;20052;-61
2023/09/09 03:48:34;;;;;;;9.98;8.43;;;12.80;99.90;;;;;;5075956;28;20111;-61
2023/09/09 03:51:01;;;;;;;12.30;8.55;;;12.80;99.90;;;;;;5093869;28;20082;-61
2023/09/09 03:53:27;;;;;;;14.65;8.23;;;12.80;99.90;;;;;;5093733;28;20024;-61
2023/09/09 03:55:53;;;;;;;15.35;8.52;;;12.80;99.90;;;;;;5093926;28;20051;-61
2023/09/09 03:58:19;;;;;;;14.73;8.02;;;12.80;99.90;;;;;;5093977;28;20090;-61
2023/09/09 04:00:48;;;;;;;11.75;8.73;;;12.80;99.90;;;;;;5075977;28;20420;-61
2023/09/09 04:03:13;;;;;;;11.30;8.10;;;12.80;99.90;;;;;;5075993;28;20036;-61
2023/09/09 04:05:40;;;;;;;11.55;7.93;;;12.80;99.90;;;;;;5092481;28;20031;-61
2023/09/09 04:08:09;;;;;;;14.10;9.63;;;12.70;99.90;;;;;;5075952;28;20028;-61
2023/09/09 04:10:37;;;;;;;11.68;8.50;;;12.70;99.90;;;;;;5093217;28;20020;-61
2023/09/09 04:13:03;;;;;;;12.38;8.93;;;12.70;99.90;;;;;;5075374;28;20032;-61
2023/09/09 04:15:29;;;;;;;13.32;8.77;;;12.70;99.90;;;;;;5075418;28;20069;-61
2023/09/09 04:17:54;;;;;;;12.55;8.68;;;12.70;99.90;;;;;;5093786;28;20078;-61
2023/09/09 04:20:20;;;;;;;9.98;8.57;;;12.70;99.90;;;;;;5094177;28;20056;-61
2023/09/09 04:22:46;;;;;;;10.68;8.50;;;12.60;99.90;;;;;;5093662;28;20028;-61
2023/09/09 04:25:11;;;;;;;10.15;8.07;;;12.60;99.90;;;;;;5075504;28;20382;-61
2023/09/09 04:27:37;;;;;;;11.05;8.55;;;12.60;99.90;;;;;;5075626;28;20036;-61
2023/09/09 04:30:03;;;;;;;15.07;9.27;;;12.60;99.90;;;;;;5076376;28;20021;-61
2023/09/09 04:32:31;;;;;;;12.57;8.75;;;12.50;99.90;;;;;;5093641;28;20032;-61
2023/09/09 04:34:57;;;;;;;11.50;8.80;;;12.50;99.90;;;;;;5093644;28;20025;-61
2023/09/09 04:37:24;;;;;;;11.38;8.75;;;12.50;99.90;;;;;;5093671;28;20030;-61
2023/09/09 04:39:50;;;;;;;12.25;8.88;;;12.50;99.90;;;;;;5093494;28;20028;-61
2023/09/09 04:42:17;;;;;;;10.32;8.48;;;12.60;99.90;;;;;;5093184;28;20035;-61
2023/09/09 04:44:42;;;;;;;12.30;9.15;;;12.60;99.90;;;;;;5075774;28;20059;-61
2023/09/09 04:47:08;;;;;;;16.15;8.93;;;12.70;99.90;;;;;;5075425;28;20067;-61
2023/09/09 04:49:33;;;;;;;10.55;8.25;;;12.70;99.90;;;;;;5075365;28;20479;-61
2023/09/09 04:51:59;;;;;;;11.82;8.52;;;12.70;99.90;;;;;;5093362;28;20044;-61
2023/09/09 04:54:25;;;;;;;12.52;8.80;;;12.70;99.90;;;;;;5093379;28;20085;-61
2023/09/09 04:56:51;;;;;;;23.23;9.98;;;12.70;99.90;;;;;;5093673;28;20043;-61
2023/09/09 04:59:16;;;;;;;11.15;8.38;;;12.80;99.90;;;;;;5093730;28;20107;-61
2023/09/09 05:01:42;;;;;;;11.55;8.57;;;12.80;99.90;;;;;;5092948;28;20072;-61
2023/09/09 05:04:07;;;;;;;14.07;9.02;;;12.90;99.90;;;;;;5075405;28;20082;-61
2023/09/09 05:06:33;;;;;;;18.40;9.73;;;12.90;99.90;;;;;;5093694;28;20099;-61
2023/09/09 05:08:59;;;;;;;19.90;11.45;;;12.90;99.90;;;;;;5075364;28;20021;-61
2023/09/09 05:11:24;;;;;;;19.30;11.48;;;13.00;99.90;;;;;;5092966;28;20447;-61
2023/09/09 05:13:50;;;;;;;14.00;10.35;;;13.00;99.90;;;;;;5093210;28;20024;-61
2023/09/09 05:16:16;;;;;;;13.55;8.90;;;13.10;99.90;;;;;;5091970;28;20028;-61
2023/09/09 05:18:41;;;;;;;11.35;9.25;;;13.20;99.90;;;;;;5093217;28;20448;-61
2023/09/09 05:21:07;;;;;;;13.93;9.40;;;13.30;99.90;;;;;;5093105;28;20021;-61
2023/09/09 05:23:35;;;;;;;13.63;9.15;;;13.40;99.90;;;;;;5095977;28;20583;-61
2023/09/09 05:26:01;;;;;;;17.40;9.13;;;13.60;99.90;;;;;;5078651;28;20035;-61
2023/09/09 05:28:26;;;;;;;12.20;9.00;;;13.80;99.90;;;;;;5078475;28;20381;-61
2023/09/09 05:30:52;;;;;;;14.63;9.30;;;14.00;99.90;;;;;;5096565;28;20032;-61
2023/09/09 05:33:18;;;;;;;16.58;9.27;;;14.30;99.90;;;;;;5096284;28;20028;-61
2023/09/09 05:35:44;;;;;;;11.45;9.00;;;14.50;99.90;;;;;;5096193;28;20430;-61
2023/09/09 05:38:09;;;;;;;13.20;8.98;;;14.80;99.90;;;;;;5095171;28;20063;-61
2023/09/09 05:40:35;;;;;;;9.88;8.40;;;15.00;99.90;;;;;;5096511;28;20055;-61
2023/09/09 05:43:01;;;;;;;13.70;8.68;;;15.30;99.90;;;;;;5096258;28;20032;-61
2023/09/09 05:45:26;;;;;;;10.48;8.25;;;15.50;99.90;;;;;;5096409;28;20059;-61
2023/09/09 05:47:52;;;;;;;12.38;8.63;;;15.80;99.90;;;;;;5078263;28;20078;-61
2023/09/09 05:50:18;;;;;;;10.13;8.25;;;16.10;99.90;;;;;;5096463;28;20381;-61
2023/09/09 05:52:43;;;;;;;11.80;7.95;;;16.30;99.90;;;;;;5096190;28;20477;-61
2023/09/09 05:55:09;;;;;;;13.45;8.90;;;16.60;99.90;;;;;;5078139;28;20028;-61
2023/09/09 05:57:34;;;;;;;10.45;7.80;;;16.90;99.90;;;;;;5077669;28;20462;-61
2023/09/09 06:00:02;;;;;;;13.48;8.13;;;17.30;99.90;;;;;;5077953;28;20024;-61
2023/09/09 06:02:27;;;;;;;12.35;8.18;;;17.50;99.90;;;;;;5096125;28;20374;-61
2023/09/09 06:04:53;;;;;;;11.65;8.63;;;17.90;99.90;;;;;;5096045;28;20024;-61
2023/09/09 06:07:19;;;;;;;15.25;9.05;;;18.20;99.90;;;;;;5095904;28;20024;-61
2023/09/09 06:09:45;;;;;;;11.18;8.52;;;18.50;99.90;;;;;;5077825;28;20024;-63
2023/09/09 06:12:11;;;;;;;16.38;8.13;;;19.00;99.90;;;;;;5095731;28;20038;-63
2023/09/09 06:14:36;;;;;;;13.75;7.85;;;19.40;99.90;;;;;;5095860;28;20016;-63
2023/09/09 06:17:02;;;;;;;11.18;7.72;;;19.80;99.90;;;;;;5094614;28;20028;-64
2023/09/09 06:19:28;;;;;;;17.00;8.07;;;20.20;99.90;;;;;;5095857;28;20023;-64
2023/09/09 06:21:53;;;;;;;9.32;7.53;;;20.60;99.90;;;;;;5095379;28;20370;-58
2023/09/09 06:24:19;;;;;;;9.98;7.35;;;21.00;99.90;;;;;;5095811;28;20031;-59
2023/09/09 06:26:45;;;;;;;9.60;7.38;;;21.30;99.90;;;;;;5095767;28;20070;-59
2023/09/09 06:29:10;;;;;;;9.85;6.57;;;21.60;99.90;;;;;;5087181;28;20067;-59
2023/09/09 06:31:36;;;;;;;11.38;7.05;;;22.00;99.90;;;;;;5076590;28;20032;-59
2023/09/09 06:34:02;;;;;;;9.63;7.40;;;22.30;99.90;;;;;;5075154;28;20024;-58
2023/09/09 06:36:27;;;;;;;9.48;6.60;;;22.70;99.90;;;;;;5075744;28;20059;-58
2023/09/09 06:38:53;;;;;;;10.32;6.57;;;22.90;99.30;;;;;;5058204;28;20028;-58
2023/09/09 06:41:18;;;;;;;15.98;6.78;;;23.10;98.70;;;;;;5075140;28;20035;-57
2023/09/09 06:43:44;;;;;;;8.60;7.10;;;23.20;97.90;;;;;;5074893;28;20039;-57
2023/09/09 06:46:10;;;;;;;10.93;6.90;;;23.20;97.60;;;;;;5075187;28;20048;-57
2023/09/09 06:48:36;;;;;;;10.63;6.82;;;23.10;97.40;;;;;;5056975;28;20090;-58
2023/09/09 06:51:02;;;;;;;9.55;6.35;;;23.20;97.00;;;;;;5074085;28;20037;-58
2023/09/09 06:53:28;;;;;;;12.13;6.25;;;23.10;97.20;;;;;;5057122;28;20488;-65
2023/09/09 06:55:53;;;;;;;11.23;6.90;;;23.60;96.50;;;;;;5074534;28;20131;-76
2023/09/09 06:58:19;;;;;;;16.23;6.03;;;23.90;95.80;;;;;;5074921;28;20031;-73
2023/09/09 07:00:52;;;;;;;10.88;6.38;;;24.20;94.70;;;;;;5092076;28;20065;-74
2023/09/09 07:03:21;;;;;;;11.98;6.50;;;24.40;94.00;;;;;;5113701;28;20030;-71
2023/09/09 07:05:47;;;;;;;7.10;5.68;;;24.70;93.30;;;;;;5115960;28;20024;-62
2023/09/09 07:08:12;;;;;;;8.95;5.95;;;24.90;92.80;;;;;;5096733;28;20046;-61
2023/09/09 07:10:38;;;;;;;9.43;6.10;;;25.10;92.20;;;;;;5114987;28;20077;-60
2023/09/09 07:13:03;;;;;;;9.05;5.93;;;25.00;91.50;;;;;;5114866;28;20023;-61
2023/09/09 07:15:29;;;;;;;9.45;5.75;;;25.00;91.50;;;;;;5115514;28;20031;-63
2023/09/09 07:17:55;;;;;;;8.98;6.25;;;25.10;91.30;;;;;;5114915;28;20054;-60
2023/09/09 07:20:21;;;;;;;10.80;6.72;;;25.50;90.60;;;;;;5115062;28;20038;-61
2023/09/09 07:22:47;;;;;;;6.32;5.40;;;25.50;89.60;;;;;;5114493;28;20024;-60
2023/09/09 07:25:13;;;;;;;8.20;5.80;;;25.40;89.50;;;;;;5114619;28;20042;-61
2023/09/09 07:27:39;;;;;;;5.72;5.10;;;24.90;90.50;;;;;;5096721;28;20027;-60
2023/09/09 07:30:06;;;;;;;9.38;5.57;;;25.00;90.00;;;;;;5114473;28;20035;-61
2023/09/09 07:32:32;;;;;;;7.97;5.25;;;25.30;89.40;;;;;;5096357;28;20513;-61
2023/09/09 07:35:02;;;;;;;9.60;5.63;;;25.40;88.90;;;;;;5114642;28;20107;-61
2023/09/09 07:37:28;;;;;;;8.88;5.70;;;25.90;87.20;;;;;;5096613;28;20027;-60
2023/09/09 07:39:56;;;;;;;9.30;5.50;;;26.00;85.30;;;;;;5096288;28;20174;-61
2023/09/09 07:42:21;;;;;;;7.00;5.63;;;26.10;85.00;;;;;;5114579;28;20389;-60
2023/09/09 07:44:47;;;;;;;9.50;5.35;;;26.10;84.50;;;;;;5114767;28;20028;-63
2023/09/09 07:47:13;;;;;;;10.27;5.47;;;26.10;84.30;;;;;;5114538;28;20031;-61
2023/09/09 07:49:38;;;;;;;9.52;4.97;;;26.20;83.60;;;;;;5114756;28;20031;-61
2023/09/09 07:52:04;;;;;;;8.73;5.45;;;26.60;82.20;;;;;;5095796;28;20047;-62
2023/09/09 07:54:31;;;;;;;6.97;5.30;;;26.90;81.20;;;;;;5114404;28;20035;-62
2023/09/09 07:56:58;;;;;;;8.23;5.43;;;27.10;80.50;;;;;;5096565;28;20023;-62
2023/09/09 07:59:26;;;;;;;6.25;4.90;;;27.40;78.80;;;;;;5114446;28;20015;-63
2023/09/09 08:01:52;;;;;;;7.47;5.17;;;27.90;77.20;;;;;;5095936;28;20457;-62
2023/09/09 08:04:17;;;;;;;6.18;5.40;;;27.70;76.70;;;;;;5114324;28;20032;-62
2023/09/09 08:06:46;;;;;;;7.22;5.20;;;28.10;75.90;;;;;;5114195;28;20020;-67
2023/09/09 08:09:11;;;;;;;6.35;5.22;;;28.20;75.20;;;;;;5114225;28;20399;-62
2023/09/09 08:11:37;;;;;;;7.90;4.90;;;28.50;74.10;;;;;;5113938;28;20028;-62
2023/09/09 08:14:03;;;;;;;6.10;4.50;;;28.90;72.20;;;;;;5095874;28;20028;-62
2023/09/09 08:16:30;;;;;;;9.10;5.18;;;29.10;71.70;;;;;;5096361;28;20019;-62
2023/09/09 08:18:56;;;;;;;9.05;4.72;;;29.40;69.90;;;;;;5096437;28;20032;-62
2023/09/09 08:21:21;;;;;;;9.43;4.25;;;29.60;69.20;;;;;;5113927;28;20028;-62
2023/09/09 08:23:47;;;;;;;5.18;4.68;;;29.90;67.60;;;;;;5096019;28;20055;-64
2023/09/09 08:26:13;;;;;;;7.15;5.00;;;30.10;67.20;;;;;;5113731;28;20024;-64
2023/09/09 08:28:40;;;;;;;8.27;4.63;;;30.20;67.60;;;;;;5113567;28;20069;-62
2023/09/09 08:31:05;;;;;;;7.93;4.50;;;30.70;64.70;;;;;;5113917;28;20022;-62
2023/09/09 08:33:31;;;;;;;9.30;4.22;;;30.60;64.50;;;;;;5113765;28;20106;-62
2023/09/09 08:36:03;;;;;;;6.43;4.43;;;30.90;62.60;;;;;;5095622;28;20481;-62
2023/09/09 08:38:29;;;;;;;9.52;4.85;;;30.60;61.80;;;;;;5113726;28;20020;-61
2023/09/09 08:41:05;;;;;;;4.55;4.05;;;30.60;62.10;;;;;;5114124;28;20019;-63
2023/09/09 08:43:53;;;;;;;8.50;4.35;;;30.80;62.20;;;;;;5095794;28;20127;-62
2023/09/09 08:46:38;;;;;;;5.90;4.55;;;31.00;60.10;;;;;;5095495;28;20034;-61
2023/09/09 08:49:04;;;;;;;7.00;4.20;;;31.60;59.90;;;;;;5095329;28;20028;-61
2023/09/09 08:51:37;;;;;;;10.70;4.68;;;31.90;58.50;;;;;;5113794;28;20544;-61
2023/09/09 08:54:05;;;;;;;5.45;4.95;;;32.20;58.20;;;;;;5095930;28;20115;-62
2023/09/09 08:56:32;;;;;;;5.65;4.18;;;32.50;57.00;;;;;;5114059;28;20116;-62
2023/09/09 08:58:58;;;;;;;4.97;4.55;;;33.10;56.30;;;;;;5098842;28;20028;-62
2023/09/09 09:01:26;;;;;;;11.38;4.88;;;33.30;54.60;;;;;;5117394;28;20088;-62
2023/09/09 09:03:53;;;;;;;4.85;4.30;;;32.40;55.30;;;;;;5117618;28;20034;-61
2023/09/09 09:06:19;;;;;;;5.40;4.00;;;32.60;54.50;;;;;;5117531;28;20428;-61
2023/09/09 09:08:45;;;;;;;6.30;4.22;;;32.70;55.30;;;;;;5117537;28;20024;-62
2023/09/09 09:11:12;;;;;;;5.70;4.07;;;33.20;54.20;;;;;;5117418;28;20034;-61
2023/09/09 09:13:38;;;;;;;5.03;4.15;;;33.60;53.40;;;;;;5117247;28;20397;-63
2023/09/09 09:16:04;;;;;;;5.10;4.35;;;34.10;53.30;;;;;;5117145;28;20056;-61
2023/09/09 09:18:29;;;;;;;5.53;4.15;;;33.80;52.40;;;;;;5117287;28;20023;-61
2023/09/09 09:21:09;;;;;;;6.90;3.92;;;33.60;52.80;;;;;;5099187;28;20080;-61
2023/09/09 09:23:44;;;;;;;4.25;3.85;;;32.90;52.20;;;;;;5098913;28;20492;-61
2023/09/09 09:26:26;;;;;;;4.20;3.80;;;32.60;52.70;;;;;;5116913;28;20023;-61
2023/09/09 09:28:52;;;;;;;4.60;3.90;;;32.70;52.10;;;;;;5117068;28;20024;-61
2023/09/09 09:31:25;;;;;;;6.97;3.65;;;32.90;52.00;;;;;;5117094;28;20024;-61
2023/09/09 09:33:52;;;;;;;5.22;3.88;;;33.20;51.20;;;;;;5116968;28;20380;-62
2023/09/09 09:36:20;;;;;;;5.43;3.65;;;33.20;51.40;;;;;;5117247;28;20106;-61
2023/09/09 09:38:46;;;;;;;7.78;3.90;;;33.40;51.40;;;;;;5098654;28;20053;-61
2023/09/09 09:41:11;;;;;;;5.53;3.42;;;33.40;50.40;;;;;;5116683;28;20031;-61
2023/09/09 09:43:37;;;;;;;5.82;4.20;;;33.20;50.90;;;;;;5116981;28;20053;-62
2023/09/09 09:46:16;;;;;;;8.90;3.60;;;33.90;50.30;;;;;;5116849;28;20396;-62
2023/09/09 09:48:42;;;;;;;7.78;3.70;;;33.90;49.70;;;;;;5098387;28;20510;-62
2023/09/09 09:51:08;;;;;;;4.45;3.65;;;33.70;49.70;;;;;;5116484;28;20052;-62
2023/09/09 09:53:49;;;;;;;6.25;3.35;;;34.10;48.70;;;;;;5117851;28;20035;-61
2023/09/09 09:56:15;;;;;;;6.90;3.25;;;33.90;48.00;;;;;;5116572;28;20031;-62
2023/09/09 09:58:44;;;;;;;4.95;3.60;;;33.90;48.20;;;;;;5116327;28;20031;-62
2023/09/09 10:01:10;;;;;;;7.47;3.45;;;34.00;49.00;;;;;;5120432;28;20016;-63
2023/09/09 10:03:51;;;;;;;3.60;3.30;;;34.30;47.60;;;;;;5116986;28;20073;-62
2023/09/09 10:06:21;;;;;;;7.97;3.90;;;34.20;47.40;;;;;;5116969;28;20111;-62
2023/09/09 10:09:06;;;;;;;6.03;3.55;;;34.30;47.10;;;;;;5117916;28;20103;-62
2023/09/09 10:11:40;;;;;;;4.53;3.30;;;34.30;46.60;;;;;;5099681;28;20031;-63
2023/09/09 10:14:14;;;;;;;3.50;3.20;;;34.70;46.70;;;;;;5116971;28;20032;-63
2023/09/09 10:16:42;;;;;;;3.75;3.38;;;34.90;45.50;;;;;;5116282;28;20027;-64
2023/09/09 10:19:10;;;;;;;3.10;2.80;;;34.70;45.60;;;;;;5098398;28;20020;-62
2023/09/09 10:21:37;;;;;;;4.80;3.40;;;34.90;45.10;;;;;;5115841;28;20028;-63
2023/09/09 10:24:05;;;;;;;3.95;3.25;;;35.70;44.10;;;;;;5116514;28;20102;-63
2023/09/09 10:26:32;;;;;;;4.20;2.60;;;36.40;43.10;;;;;;5116277;28;20115;-64
2023/09/09 10:29:01;;;;;;;5.03;3.45;;;36.00;43.10;;;;;;5115965;28;20020;-63
2023/09/09 10:31:29;;;;;;;5.38;2.50;;;35.70;43.90;;;;;;5097936;28;20528;-63
2023/09/09 10:33:56;;;;;;;3.83;3.28;;;35.80;43.80;;;;;;5116141;28;20051;-63
2023/09/09 10:36:25;;;;;;;3.85;2.85;;;36.60;44.10;;;;;;5116390;28;20570;-63
2023/09/09 10:38:56;;;;;;;6.43;3.17;;;37.20;41.30;;;;;;5115657;28;20503;-63
2023/09/09 10:41:21;;;;;;;3.95;2.53;;;37.10;40.80;;;;;;5116146;28;20032;-63
2023/09/09 10:43:47;;;;;;;5.40;3.13;;;36.70;41.50;;;;;;5115455;28;20069;-63
2023/09/09 10:46:13;;;;;;;6.43;2.80;;;37.20;41.40;;;;;;5118456;28;20053;-63
2023/09/09 10:48:42;;;;;;;5.05;2.90;;;37.30;40.80;;;;;;5101652;28;20115;-65
2023/09/09 10:51:08;;;;;;;3.53;2.60;;;36.90;40.80;;;;;;5124126;28;20047;-62
2023/09/09 10:53:35;;;;;;;2.65;2.50;;;36.40;41.10;;;;;;5106782;28;20457;-64
2023/09/09 10:56:23;;;;;;;3.13;2.92;;;36.00;40.90;;;;;;5110711;28;20096;-63
2023/09/09 10:58:51;;;;;;;4.70;3.05;;;35.80;40.70;;;;;;5117315;28;20495;-62
2023/09/09 11:01:23;;;;;;;;;;;35.50;41.70;;;;;;5098101;28;20480;-62
2023/09/09 11:03:51;;;;;;;3.53;2.67;;;35.70;40.60;;;;;;5115412;28;19910;-63
2023/09/09 11:06:31;;;;;;;3.87;2.60;;;36.10;40.90;;;;;;5097102;28;20033;-63
2023/09/09 11:09:00;;;;;;;3.10;2.55;;;36.60;40.60;;;;;;5097074;28;20027;-64
2023/09/09 11:11:35;;;;;;;3.60;2.80;;;37.40;39.40;;;;;;5097110;28;20115;-64
2023/09/09 11:14:05;;;;;;;3.22;2.92;;;36.90;38.60;;;;;;5115165;28;20024;-64
2023/09/09 11:16:38;;;;;;;2.83;2.63;;;36.90;39.40;;;;;;5114967;28;20027;-64
2023/09/09 11:19:10;;;;;;;3.20;2.90;;;37.40;39.00;;;;;;5114868;28;20107;-65
2023/09/09 11:21:43;;;;;;;3.22;2.95;;;37.20;39.10;;;;;;5114725;28;20028;-64
2023/09/09 11:24:10;;;;;;;13.07;3.30;;;36.80;39.90;;;;;;5115421;28;20031;-63
2023/09/09 11:26:43;;;;;;;3.50;3.20;;;37.00;39.60;;;;;;5096748;28;20528;-64
2023/09/09 11:29:09;;;;;;;7.20;3.22;;;36.20;39.50;;;;;;5114846;28;20058;-64
2023/09/09 11:31:35;;;;;;;6.40;3.10;;;35.70;40.70;;;;;;5114731;28;20032;-63
2023/09/09 11:34:00;;;;;;;3.50;2.95;;;36.00;40.20;;;;;;5114905;28;20110;-63
2023/09/09 11:36:28;;;;;;;3.72;3.00;;;36.60;38.80;;;;;;5096505;28;20027;-64
2023/09/09 11:38:56;;;;;;;4.00;2.83;;;36.90;39.00;;;;;;5096306;28;20028;-64
2023/09/09 11:41:23;;;;;;;5.22;2.97;;;37.40;39.40;;;;;;5114752;28;20258;-64
2023/09/09 11:44:02;;;;;;;2.83;2.53;;;37.40;39.10;;;;;;5114749;28;20028;-64
2023/09/09 11:46:34;;;;;;;6.50;3.00;;;37.60;39.40;;;;;;5114920;28;20484;-64
2023/09/09 11:49:00;;;;;;;7.45;3.08;;;38.20;38.50;;;;;;5114525;28;20062;-64
2023/09/09 11:51:25;;;;;;;4.95;3.50;;;37.20;38.80;;;;;;5114197;28;20052;-64
2023/09/09 11:53:51;;;;;;;6.20;3.60;;;36.40;39.70;;;;;;5096190;28;20032;-64
2023/09/09 11:56:19;;;;;;;8.90;3.00;;;37.00;39.40;;;;;;5114478;28;20038;-64
2023/09/09 11:58:44;;;;;;;3.60;3.30;;;37.10;39.40;;;;;;5096105;28;20097;-64
2023/09/09 12:01:10;;;;;;;3.50;3.30;;;37.60;39.40;;;;;;5096084;28;20036;-67
2023/09/09 12:03:36;;;;;;;3.83;3.40;;;37.30;39.20;;;;;;5096169;28;20026;-63
2023/09/09 12:06:05;;;;;;;3.45;3.17;;;37.80;39.20;;;;;;5095938;28;20387;-64
2023/09/09 12:08:31;;;;;;;3.03;2.83;;;38.10;38.70;;;;;;5095939;28;20122;-64
2023/09/09 12:10:58;;;;;;;3.72;2.88;;;38.60;38.50;;;;;;5114158;28;20060;-64
2023/09/09 12:13:24;;;;;;;3.30;3.00;;;39.10;38.30;;;;;;5113867;28;20542;-64
2023/09/09 12:15:51;;;;;;;4.88;3.03;;;39.10;38.00;;;;;;5095596;28;20067;-63
2023/09/09 12:18:17;;;;;;;6.85;3.20;;;37.50;38.90;;;;;;5095906;28;20077;-64
2023/09/09 12:21:02;;;;;;;5.90;3.70;;;37.20;39.70;;;;;;5114407;28;20024;-64
2023/09/09 12:23:33;;;;;;;6.55;3.25;;;37.70;39.10;;;;;;5114219;28;20027;-64
2023/09/09 12:26:18;;;;;;;5.28;2.90;;;37.30;39.80;;;;;;5096094;28;20020;-64
2023/09/09 12:29:03;;;;;;;4.75;2.88;;;37.70;39.50;;;;;;5095875;28;20473;-63
2023/09/09 12:31:31;;;;;;;3.13;2.85;;;37.90;39.10;;;;;;5096173;28;20028;-64
2023/09/09 12:33:56;;;;;;;5.55;3.15;;;37.80;38.90;;;;;;5099461;28;20073;-64
2023/09/09 12:36:22;;;;;;;5.57;3.00;;;38.30;38.80;;;;;;5117835;28;20418;-64
2023/09/09 12:38:50;;;;;;;6.15;3.22;;;38.70;38.60;;;;;;5118434;28;20062;-71
2023/09/09 12:41:22;;;;;;;3.20;3.00;;;39.00;40.10;;;;;;5117840;28;20469;-64
2023/09/09 12:43:51;;;;;;;3.47;3.17;;;37.80;39.20;;;;;;5117832;28;20388;-64